sensor_id;sensor_type;location;lat;lon;timestamp;pressure;altitude;pressure_sealevel;temperature;humidity
53514;BME280;39768;54.148;12.174;2023-05-07T00:00:50;102281.16;;;12.14;100.00
53514;BME280;39768;54.148;12.174;2023-05-07T00:04:52;102282.97;;;12.33;100.00
53514;BME280;39768;54.148;12.174;2023-05-07T00:08:54;102280.41;;;12.68;100.00
53514;BME280;39768;54.148;12.174;2023-05-07T00:12:55;102281.25;;;12.52;100.00
53514;BME280;39768;54.148;12.174;2023-05-07T00:16:57;102282.97;;;12.29;100.00
53514;BME280;39768;54.148;12.174;2023-05-07T00:20:59;102285.72;;;12.53;100.00
53514;BME280;39768;54.148;12.174;2023-05-07T00:25:00;102291.94;;;12.58;100.00
53514;BME280;39768;54.148;12.174;2023-05-07T00:29:02;102283.91;;;12.45;100.00
53514;BME280;39768;54.148;12.174;2023-05-07T00:33:03;102283.09;;;12.75;100.00
53514;BME280;39768;54.148;12.174;2023-05-07T00:37:05;102278.47;;;12.17;100.00
53514;BME280;39768;54.148;12.174;2023-05-07T00:41:08;102277.56;;;12.09;100.00
53514;BME280;39768;54.148;12.174;2023-05-07T00:45:10;102284.81;;;12.54;100.00
53514;BME280;39768;54.148;12.174;2023-05-07T00:49:12;102283.06;;;12.67;98.05
53514;BME280;39768;54.148;12.174;2023-05-07T00:53:14;102283.97;;;12.64;97.24
53514;BME280;39768;54.148;12.174;2023-05-07T00:57:15;102270.69;;;12.84;95.59
53514;BME280;39768;54.148;12.174;2023-05-07T01:01:17;102275.03;;;12.52;95.76
53514;BME280;39768;54.148;12.174;2023-05-07T01:05:19;102274.13;;;12.48;96.11
53514;BME280;39768;54.148;12.174;2023-05-07T01:09:26;102279.53;;;12.59;95.96
53514;BME280;39768;54.148;12.174;2023-05-07T01:13:29;102280.41;;;12.64;95.60
53514;BME280;39768;54.148;12.174;2023-05-07T01:17:49;102276.81;;;12.51;95.09
53514;BME280;39768;54.148;12.174;2023-05-07T01:22:03;102274.00;;;12.09;96.93
53514;BME280;39768;54.148;12.174;2023-05-07T01:26:09;102273.19;;;12.25;95.63
53514;BME280;39768;54.148;12.174;2023-05-07T01:30:11;102269.25;;;11.54;99.49
53514;BME280;39768;54.148;12.174;2023-05-07T01:34:16;102271.75;;;11.35;100.00
53514;BME280;39768;54.148;12.174;2023-05-07T01:38:19;102279.44;;;11.03;100.00
53514;BME280;39768;54.148;12.174;2023-05-07T01:42:23;102272.78;;;10.56;100.00
53514;BME280;39768;54.148;12.174;2023-05-07T01:46:26;102269.59;;;10.89;100.00
53514;BME280;39768;54.148;12.174;2023-05-07T01:50:28;102279.28;;;10.81;100.00
53514;BME280;39768;54.148;12.174;2023-05-07T01:54:31;102272.41;;;11.06;100.00
53514;BME280;39768;54.148;12.174;2023-05-07T01:58:34;102275.03;;;11.03;100.00
53514;BME280;39768;54.148;12.174;2023-05-07T02:02:35;102271.91;;;11.59;97.11
53514;BME280;39768;54.148;12.174;2023-05-07T02:06:37;102277.28;;;11.66;95.31
53514;BME280;39768;54.148;12.174;2023-05-07T02:10:41;102272.88;;;11.70;93.94
53514;BME280;39768;54.148;12.174;2023-05-07T02:14:44;102276.34;;;11.55;94.27
53514;BME280;39768;54.148;12.174;2023-05-07T02:18:45;102279.00;;;11.58;94.69
53514;BME280;39768;54.148;12.174;2023-05-07T02:22:47;102278.97;;;11.52;96.82
53514;BME280;39768;54.148;12.174;2023-05-07T02:26:48;102268.44;;;11.74;94.54
53514;BME280;39768;54.148;12.174;2023-05-07T02:30:50;102280.78;;;11.56;93.82
53514;BME280;39768;54.148;12.174;2023-05-07T02:34:52;102278.03;;;11.47;94.66
53514;BME280;39768;54.148;12.174;2023-05-07T02:38:55;102275.38;;;11.46;95.14
53514;BME280;39768;54.148;12.174;2023-05-07T02:42:56;102282.38;;;11.33;94.47
53514;BME280;39768;54.148;12.174;2023-05-07T02:46:58;102286.75;;;11.29;94.26
53514;BME280;39768;54.148;12.174;2023-05-07T02:51:00;102281.50;;;11.36;93.51
53514;BME280;39768;54.148;12.174;2023-05-07T02:55:02;102284.72;;;11.00;94.23
53514;BME280;39768;54.148;12.174;2023-05-07T02:59:04;102282.16;;;11.07;93.90
53514;BME280;39768;54.148;12.174;2023-05-07T03:03:11;102286.59;;;11.08;93.71
53514;BME280;39768;54.148;12.174;2023-05-07T03:07:13;102289.91;;;10.81;94.71
53514;BME280;39768;54.148;12.174;2023-05-07T03:11:15;102288.16;;;10.86;95.36
53514;BME280;39768;54.148;12.174;2023-05-07T03:15:17;102301.41;;;10.82;95.15
53514;BME280;39768;54.148;12.174;2023-05-07T03:19:19;102302.91;;;10.58;96.83
53514;BME280;39768;54.148;12.174;2023-05-07T03:23:20;102304.72;;;10.61;97.87
53514;BME280;39768;54.148;12.174;2023-05-07T03:27:25;102299.69;;;10.88;97.05
53514;BME280;39768;54.148;12.174;2023-05-07T03:31:27;102294.53;;;11.05;97.13
53514;BME280;39768;54.148;12.174;2023-05-07T03:35:29;102292.06;;;11.28;95.44
53514;BME280;39768;54.148;12.174;2023-05-07T03:39:31;102297.28;;;11.16;95.98
53514;BME280;39768;54.148;12.174;2023-05-07T03:43:33;102293.69;;;11.09;96.14
53514;BME280;39768;54.148;12.174;2023-05-07T03:47:40;102295.59;;;11.24;96.46
53514;BME280;39768;54.148;12.174;2023-05-07T03:51:43;102299.34;;;11.50;95.25
53514;BME280;39768;54.148;12.174;2023-05-07T03:55:45;102295.03;;;11.66;96.11
53514;BME280;39768;54.148;12.174;2023-05-07T03:59:47;102300.44;;;11.77;96.88
53514;BME280;39768;54.148;12.174;2023-05-07T04:03:48;102307.75;;;12.11;95.09
53514;BME280;39768;54.148;12.174;2023-05-07T04:07:51;102311.31;;;12.16;95.71
53514;BME280;39768;54.148;12.174;2023-05-07T04:11:58;102306.06;;;12.38;95.21
53514;BME280;39768;54.148;12.174;2023-05-07T04:16:01;102304.34;;;12.50;95.40
53514;BME280;39768;54.148;12.174;2023-05-07T04:20:04;102312.50;;;13.51;92.99
53514;BME280;39768;54.148;12.174;2023-05-07T04:24:08;102320.19;;;15.87;78.15
53514;BME280;39768;54.148;12.174;2023-05-07T04:28:11;102321.91;;;17.24;64.56
53514;BME280;39768;54.148;12.174;2023-05-07T04:32:14;102317.53;;;18.20;55.03
53514;BME280;39768;54.148;12.174;2023-05-07T04:36:16;102315.19;;;19.25;52.54
53514;BME280;39768;54.148;12.174;2023-05-07T04:40:24;102320.66;;;20.23;47.76
53514;BME280;39768;54.148;12.174;2023-05-07T04:44:26;102331.03;;;20.05;46.42
53514;BME280;39768;54.148;12.174;2023-05-07T04:48:28;102337.84;;;20.51;45.44
53514;BME280;39768;54.148;12.174;2023-05-07T04:52:32;102339.16;;;21.25;43.52
53514;BME280;39768;54.148;12.174;2023-05-07T04:56:34;102353.38;;;22.10;41.38
53514;BME280;39768;54.148;12.174;2023-05-07T05:00:36;102346.19;;;22.81;39.47
53514;BME280;39768;54.148;12.174;2023-05-07T05:04:40;102349.13;;;22.98;39.64
53514;BME280;39768;54.148;12.174;2023-05-07T05:08:42;102348.38;;;22.95;39.36
53514;BME280;39768;54.148;12.174;2023-05-07T05:12:44;102342.34;;;21.37;41.08
53514;BME280;39768;54.148;12.174;2023-05-07T05:16:46;102333.91;;;21.48;42.44
53514;BME280;39768;54.148;12.174;2023-05-07T05:20:48;102334.41;;;19.10;45.65
53514;BME280;39768;54.148;12.174;2023-05-07T05:24:50;102340.25;;;16.95;51.56
53514;BME280;39768;54.148;12.174;2023-05-07T05:28:52;102343.13;;;17.40;55.27
53514;BME280;39768;54.148;12.174;2023-05-07T05:32:56;102348.75;;;17.26;54.92
53514;BME280;39768;54.148;12.174;2023-05-07T05:37:01;102342.28;;;16.79;58.13
53514;BME280;39768;54.148;12.174;2023-05-07T05:41:02;102349.47;;;16.02;62.16
53514;BME280;39768;54.148;12.174;2023-05-07T05:45:05;102352.03;;;16.13;63.60
53514;BME280;39768;54.148;12.174;2023-05-07T05:49:08;102348.09;;;15.59;69.02
53514;BME280;39768;54.148;12.174;2023-05-07T05:53:11;102348.81;;;15.79;68.11
53514;BME280;39768;54.148;12.174;2023-05-07T05:57:13;102358.66;;;15.74;67.48
53514;BME280;39768;54.148;12.174;2023-05-07T06:01:15;102358.09;;;16.29;63.77
53514;BME280;39768;54.148;12.174;2023-05-07T06:05:17;102360.84;;;16.22;63.58
53514;BME280;39768;54.148;12.174;2023-05-07T06:09:21;102367.38;;;15.96;65.97
53514;BME280;39768;54.148;12.174;2023-05-07T06:13:22;102370.34;;;16.49;65.34
53514;BME280;39768;54.148;12.174;2023-05-07T06:17:25;102372.91;;;16.60;62.39
53514;BME280;39768;54.148;12.174;2023-05-07T06:21:27;102376.00;;;16.97;61.45
53514;BME280;39768;54.148;12.174;2023-05-07T06:25:29;102386.91;;;16.85;59.65
53514;BME280;39768;54.148;12.174;2023-05-07T06:29:30;102384.28;;;16.82;57.31
53514;BME280;39768;54.148;12.174;2023-05-07T06:33:35;102395.66;;;17.57;57.33
53514;BME280;39768;54.148;12.174;2023-05-07T06:37:38;102397.03;;;17.84;56.28
53514;BME280;39768;54.148;12.174;2023-05-07T06:41:41;102394.78;;;17.57;56.83
53514;BME280;39768;54.148;12.174;2023-05-07T06:45:54;102399.28;;;16.95;58.48
53514;BME280;39768;54.148;12.174;2023-05-07T06:49:56;102393.84;;;17.01;59.95
53514;BME280;39768;54.148;12.174;2023-05-07T06:54:01;102395.66;;;16.99;61.08
53514;BME280;39768;54.148;12.174;2023-05-07T06:58:03;102399.19;;;17.64;57.85
53514;BME280;39768;54.148;12.174;2023-05-07T07:02:06;102388.44;;;17.61;59.08
53514;BME280;39768;54.148;12.174;2023-05-07T07:06:08;102393.97;;;18.06;55.65
53514;BME280;39768;54.148;12.174;2023-05-07T07:10:09;102397.28;;;17.69;55.65
53514;BME280;39768;54.148;12.174;2023-05-07T07:14:11;102405.69;;;18.00;54.44
53514;BME280;39768;54.148;12.174;2023-05-07T07:18:20;102398.03;;;18.26;52.73
53514;BME280;39768;54.148;12.174;2023-05-07T07:22:23;102396.25;;;18.25;54.38
53514;BME280;39768;54.148;12.174;2023-05-07T07:26:25;102397.75;;;18.40;53.08
53514;BME280;39768;54.148;12.174;2023-05-07T07:30:27;102397.53;;;18.52;51.54
53514;BME280;39768;54.148;12.174;2023-05-07T07:34:29;102401.69;;;18.24;51.87
53514;BME280;39768;54.148;12.174;2023-05-07T07:38:30;102402.75;;;18.14;50.75
53514;BME280;39768;54.148;12.174;2023-05-07T07:42:32;102404.22;;;18.78;50.94
53514;BME280;39768;54.148;12.174;2023-05-07T07:46:34;102400.72;;;18.73;51.96
53514;BME280;39768;54.148;12.174;2023-05-07T07:50:38;102393.44;;;18.78;50.38
53514;BME280;39768;54.148;12.174;2023-05-07T07:54:49;102403.41;;;18.73;50.07
53514;BME280;39768;54.148;12.174;2023-05-07T07:58:51;102398.91;;;18.28;50.38
53514;BME280;39768;54.148;12.174;2023-05-07T08:02:54;102398.81;;;18.33;47.96
53514;BME280;39768;54.148;12.174;2023-05-07T08:07:01;102404.19;;;18.33;50.58
53514;BME280;39768;54.148;12.174;2023-05-07T08:11:04;102402.94;;;18.05;51.03
53514;BME280;39768;54.148;12.174;2023-05-07T08:15:09;102408.53;;;18.85;48.31
53514;BME280;39768;54.148;12.174;2023-05-07T08:19:11;102407.16;;;18.65;46.99
53514;BME280;39768;54.148;12.174;2023-05-07T08:23:12;102413.78;;;18.46;47.49
53514;BME280;39768;54.148;12.174;2023-05-07T08:27:15;102397.66;;;18.46;46.65
53514;BME280;39768;54.148;12.174;2023-05-07T08:31:17;102404.75;;;18.95;45.88
53514;BME280;39768;54.148;12.174;2023-05-07T08:35:19;102399.72;;;19.18;45.97
53514;BME280;39768;54.148;12.174;2023-05-07T08:39:21;102402.06;;;19.32;44.20
53514;BME280;39768;54.148;12.174;2023-05-07T08:43:26;102408.28;;;20.42;45.19
53514;BME280;39768;54.148;12.174;2023-05-07T08:47:38;102406.91;;;19.18;43.51
53514;BME280;39768;54.148;12.174;2023-05-07T08:51:41;102411.03;;;19.32;43.91
53514;BME280;39768;54.148;12.174;2023-05-07T08:55:43;102410.50;;;18.77;43.79
53514;BME280;39768;54.148;12.174;2023-05-07T08:59:45;102407.50;;;19.69;42.59
53514;BME280;39768;54.148;12.174;2023-05-07T09:03:47;102403.34;;;20.24;42.72
53514;BME280;39768;54.148;12.174;2023-05-07T09:07:50;102408.97;;;19.82;40.73
53514;BME280;39768;54.148;12.174;2023-05-07T09:11:59;102400.44;;;20.31;40.92
53514;BME280;39768;54.148;12.174;2023-05-07T09:16:10;102404.97;;;19.97;40.98
53514;BME280;39768;54.148;12.174;2023-05-07T09:20:16;102405.81;;;20.33;42.19
53514;BME280;39768;54.148;12.174;2023-05-07T09:24:18;102398.38;;;20.08;40.50
53514;BME280;39768;54.148;12.174;2023-05-07T09:28:20;102400.75;;;20.53;40.92
53514;BME280;39768;54.148;12.174;2023-05-07T09:32:21;102395.72;;;20.07;40.31
53514;BME280;39768;54.148;12.174;2023-05-07T09:36:23;102391.38;;;18.90;42.20
53514;BME280;39768;54.148;12.174;2023-05-07T09:40:28;102396.47;;;19.78;41.75
53514;BME280;39768;54.148;12.174;2023-05-07T09:44:34;102387.84;;;20.63;40.17
53514;BME280;39768;54.148;12.174;2023-05-07T09:48:38;102391.78;;;20.82;38.68
53514;BME280;39768;54.148;12.174;2023-05-07T09:52:44;102394.06;;;20.96;39.26
53514;BME280;39768;54.148;12.174;2023-05-07T09:56:48;102399.28;;;21.02;39.21
53514;BME280;39768;54.148;12.174;2023-05-07T10:00:52;102405.53;;;21.33;37.76
53514;BME280;39768;54.148;12.174;2023-05-07T10:04:54;102400.72;;;21.69;38.47
53514;BME280;39768;54.148;12.174;2023-05-07T10:09:02;102396.16;;;20.57;39.10
53514;BME280;39768;54.148;12.174;2023-05-07T10:13:04;102391.53;;;20.91;39.24
53514;BME280;39768;54.148;12.174;2023-05-07T10:17:13;102401.47;;;21.19;37.30
53514;BME280;39768;54.148;12.174;2023-05-07T10:21:20;102396.16;;;21.71;37.56
53514;BME280;39768;54.148;12.174;2023-05-07T10:25:31;102391.19;;;21.02;38.94
53514;BME280;39768;54.148;12.174;2023-05-07T10:33:47;102393.31;;;22.02;37.70
53514;BME280;39768;54.148;12.174;2023-05-07T10:37:52;102404.72;;;21.84;37.58
53514;BME280;39768;54.148;12.174;2023-05-07T10:41:56;102391.19;;;21.02;38.27
53514;BME280;39768;54.148;12.174;2023-05-07T10:46:13;102396.41;;;21.90;38.10
53514;BME280;39768;54.148;12.174;2023-05-07T10:50:20;102390.09;;;21.65;38.31
53514;BME280;39768;54.148;12.174;2023-05-07T10:54:23;102394.09;;;21.79;37.53
53514;BME280;39768;54.148;12.174;2023-05-07T10:58:39;102387.91;;;22.02;36.94
53514;BME280;39768;54.148;12.174;2023-05-07T11:07:24;102394.25;;;22.01;36.88
53514;BME280;39768;54.148;12.174;2023-05-07T11:11:49;102391.53;;;21.49;38.27
53514;BME280;39768;54.148;12.174;2023-05-07T11:16:18;102398.34;;;22.86;38.40
53514;BME280;39768;54.148;12.174;2023-05-07T11:24:54;102391.59;;;21.73;38.20
53514;BME280;39768;54.148;12.174;2023-05-07T11:28:56;102402.38;;;22.01;36.41
53514;BME280;39768;54.148;12.174;2023-05-07T11:33:00;102402.41;;;22.49;36.85
53514;BME280;39768;54.148;12.174;2023-05-07T11:37:02;102390.84;;;23.16;36.39
53514;BME280;39768;54.148;12.174;2023-05-07T11:41:33;102393.53;;;22.46;35.96
53514;BME280;39768;54.148;12.174;2023-05-07T11:45:34;102391.34;;;22.80;35.41
53514;BME280;39768;54.148;12.174;2023-05-07T11:49:36;102393.94;;;22.10;35.51
53514;BME280;39768;54.148;12.174;2023-05-07T11:53:41;102383.88;;;21.05;37.74
53514;BME280;39768;54.148;12.174;2023-05-07T11:57:44;102392.50;;;22.25;35.74
53514;BME280;39768;54.148;12.174;2023-05-07T12:01:46;102390.78;;;22.71;37.59
53514;BME280;39768;54.148;12.174;2023-05-07T12:05:48;102394.47;;;22.45;37.01
53514;BME280;39768;54.148;12.174;2023-05-07T12:09:50;102394.31;;;23.19;35.18
53514;BME280;39768;54.148;12.174;2023-05-07T12:13:53;102395.56;;;22.14;36.68
53514;BME280;39768;54.148;12.174;2023-05-07T12:17:58;102391.00;;;22.16;37.54
53514;BME280;39768;54.148;12.174;2023-05-07T12:22:02;102391.47;;;21.22;37.25
53514;BME280;39768;54.148;12.174;2023-05-07T12:26:04;102391.69;;;22.46;37.56
53514;BME280;39768;54.148;12.174;2023-05-07T12:30:10;102391.59;;;22.73;36.21
53514;BME280;39768;54.148;12.174;2023-05-07T12:34:12;102386.38;;;22.68;36.13
53514;BME280;39768;54.148;12.174;2023-05-07T12:38:15;102391.75;;;23.38;35.05
53514;BME280;39768;54.148;12.174;2023-05-07T12:42:21;102391.16;;;23.30;35.28
53514;BME280;39768;54.148;12.174;2023-05-07T12:46:27;102381.84;;;23.37;35.88
53514;BME280;39768;54.148;12.174;2023-05-07T12:50:32;102387.88;;;23.22;33.78
53514;BME280;39768;54.148;12.174;2023-05-07T12:54:37;102385.28;;;23.19;34.64
53514;BME280;39768;54.148;12.174;2023-05-07T12:58:39;102382.53;;;23.64;34.83
53514;BME280;39768;54.148;12.174;2023-05-07T13:02:41;102388.38;;;23.75;33.89
53514;BME280;39768;54.148;12.174;2023-05-07T13:06:45;102387.25;;;23.37;33.05
53514;BME280;39768;54.148;12.174;2023-05-07T13:10:47;102376.78;;;23.06;35.42
53514;BME280;39768;54.148;12.174;2023-05-07T13:14:49;102386.72;;;22.84;34.75
53514;BME280;39768;54.148;12.174;2023-05-07T13:18:50;102385.13;;;23.67;33.75
53514;BME280;39768;54.148;12.174;2023-05-07T13:22:52;102385.13;;;22.78;34.59
53514;BME280;39768;54.148;12.174;2023-05-07T13:26:53;102391.97;;;23.32;33.77
53514;BME280;39768;54.148;12.174;2023-05-07T13:30:55;102375.63;;;22.90;34.28
53514;BME280;39768;54.148;12.174;2023-05-07T13:34:56;102377.59;;;22.38;34.33
53514;BME280;39768;54.148;12.174;2023-05-07T13:38:58;102373.06;;;22.85;33.88
53514;BME280;39768;54.148;12.174;2023-05-07T13:43:01;102368.91;;;23.87;33.08
53514;BME280;39768;54.148;12.174;2023-05-07T13:47:03;102373.97;;;23.95;33.32
53514;BME280;39768;54.148;12.174;2023-05-07T13:51:05;102376.06;;;24.31;32.39
53514;BME280;39768;54.148;12.174;2023-05-07T13:55:07;102360.56;;;24.12;33.16
53514;BME280;39768;54.148;12.174;2023-05-07T13:59:08;102357.63;;;23.97;32.68
53514;BME280;39768;54.148;12.174;2023-05-07T14:03:10;102355.13;;;23.28;34.28
53514;BME280;39768;54.148;12.174;2023-05-07T14:07:12;102367.94;;;23.01;33.35
53514;BME280;39768;54.148;12.174;2023-05-07T14:11:13;102370.81;;;23.64;32.36
53514;BME280;39768;54.148;12.174;2023-05-07T14:15:15;102353.97;;;23.34;32.56
53514;BME280;39768;54.148;12.174;2023-05-07T14:19:17;102355.25;;;23.25;33.88
53514;BME280;39768;54.148;12.174;2023-05-07T14:23:19;102357.56;;;23.34;34.89
53514;BME280;39768;54.148;12.174;2023-05-07T14:27:20;102350.56;;;22.60;33.15
53514;BME280;39768;54.148;12.174;2023-05-07T14:31:22;102343.75;;;22.02;33.62
53514;BME280;39768;54.148;12.174;2023-05-07T14:35:24;102347.63;;;23.35;33.00
53514;BME280;39768;54.148;12.174;2023-05-07T14:39:25;102345.91;;;23.96;31.69
53514;BME280;39768;54.148;12.174;2023-05-07T14:43:27;102351.78;;;23.00;31.60
53514;BME280;39768;54.148;12.174;2023-05-07T14:47:29;102353.09;;;23.33;32.12
53514;BME280;39768;54.148;12.174;2023-05-07T14:51:30;102354.31;;;23.26;33.67
53514;BME280;39768;54.148;12.174;2023-05-07T14:55:32;102354.19;;;23.51;32.58
53514;BME280;39768;54.148;12.174;2023-05-07T14:59:37;102359.72;;;23.90;31.18
53514;BME280;39768;54.148;12.174;2023-05-07T15:03:39;102349.00;;;21.80;34.93
53514;BME280;39768;54.148;12.174;2023-05-07T15:07:41;102359.41;;;23.12;33.83
53514;BME280;39768;54.148;12.174;2023-05-07T15:11:42;102367.31;;;22.95;31.33
53514;BME280;39768;54.148;12.174;2023-05-07T15:15:44;102365.03;;;23.29;31.50
53514;BME280;39768;54.148;12.174;2023-05-07T15:19:46;102360.25;;;22.19;33.39
53514;BME280;39768;54.148;12.174;2023-05-07T15:23:47;102383.69;;;23.15;32.96
53514;BME280;39768;54.148;12.174;2023-05-07T15:27:49;102372.56;;;21.76;35.33
53514;BME280;39768;54.148;12.174;2023-05-07T15:31:51;102379.03;;;20.87;37.45
53514;BME280;39768;54.148;12.174;2023-05-07T15:35:53;102374.16;;;19.73;39.17
53514;BME280;39768;54.148;12.174;2023-05-07T15:39:55;102370.50;;;19.38;39.30
53514;BME280;39768;54.148;12.174;2023-05-07T15:43:57;102359.50;;;19.49;39.92
53514;BME280;39768;54.148;12.174;2023-05-07T15:47:58;102366.97;;;21.55;38.30
53514;BME280;39768;54.148;12.174;2023-05-07T15:52:00;102362.63;;;21.77;36.14
53514;BME280;39768;54.148;12.174;2023-05-07T15:56:02;102371.22;;;20.78;37.39
53514;BME280;39768;54.148;12.174;2023-05-07T16:00:05;102362.16;;;19.51;38.69
53514;BME280;39768;54.148;12.174;2023-05-07T16:04:15;102369.81;;;20.01;39.20
53514;BME280;39768;54.148;12.174;2023-05-07T16:08:16;102369.09;;;20.27;37.68
53514;BME280;39768;54.148;12.174;2023-05-07T16:12:18;102372.63;;;20.91;37.89
53514;BME280;39768;54.148;12.174;2023-05-07T16:16:19;102370.22;;;20.51;38.60
53514;BME280;39768;54.148;12.174;2023-05-07T16:20:25;102374.97;;;20.43;38.40
53514;BME280;39768;54.148;12.174;2023-05-07T16:24:29;102379.19;;;19.14;38.48
53514;BME280;39768;54.148;12.174;2023-05-07T16:28:31;102373.59;;;19.94;38.79
53514;BME280;39768;54.148;12.174;2023-05-07T16:32:32;102390.34;;;20.39;37.54
53514;BME280;39768;54.148;12.174;2023-05-07T16:36:35;102394.94;;;19.29;37.83
53514;BME280;39768;54.148;12.174;2023-05-07T16:40:38;102390.13;;;19.81;36.85
53514;BME280;39768;54.148;12.174;2023-05-07T16:44:40;102389.06;;;19.88;36.04
53514;BME280;39768;54.148;12.174;2023-05-07T16:48:41;102394.38;;;19.89;35.70
53514;BME280;39768;54.148;12.174;2023-05-07T16:52:43;102395.78;;;20.38;35.80
53514;BME280;39768;54.148;12.174;2023-05-07T16:56:44;102395.75;;;19.71;36.85
53514;BME280;39768;54.148;12.174;2023-05-07T17:00:46;102390.72;;;19.58;35.71
53514;BME280;39768;54.148;12.174;2023-05-07T17:04:51;102392.19;;;18.94;37.65
53514;BME280;39768;54.148;12.174;2023-05-07T17:08:53;102390.22;;;19.41;35.46
53514;BME280;39768;54.148;12.174;2023-05-07T17:12:54;102399.72;;;18.78;36.93
53514;BME280;39768;54.148;12.174;2023-05-07T17:16:56;102394.78;;;18.98;35.33
53514;BME280;39768;54.148;12.174;2023-05-07T17:20:58;102390.00;;;19.48;36.09
53514;BME280;39768;54.148;12.174;2023-05-07T17:24:59;102391.34;;;18.49;36.88
53514;BME280;39768;54.148;12.174;2023-05-07T17:29:03;102394.03;;;18.49;37.56
53514;BME280;39768;54.148;12.174;2023-05-07T17:33:06;102404.47;;;17.69;37.57
53514;BME280;39768;54.148;12.174;2023-05-07T17:37:21;102405.94;;;18.82;36.79
53514;BME280;39768;54.148;12.174;2023-05-07T17:41:24;102404.19;;;17.85;37.66
53514;BME280;39768;54.148;12.174;2023-05-07T17:45:26;102407.38;;;16.92;37.86
53514;BME280;39768;54.148;12.174;2023-05-07T17:49:27;102406.63;;;17.44;38.74
53514;BME280;39768;54.148;12.174;2023-05-07T17:53:30;102406.88;;;17.27;38.87
53514;BME280;39768;54.148;12.174;2023-05-07T17:57:32;102409.84;;;16.35;39.45
53514;BME280;39768;54.148;12.174;2023-05-07T18:01:36;102412.84;;;16.03;39.38
53514;BME280;39768;54.148;12.174;2023-05-07T18:05:42;102418.56;;;16.52;39.63
53514;BME280;39768;54.148;12.174;2023-05-07T18:09:44;102416.03;;;16.40;38.92
53514;BME280;39768;54.148;12.174;2023-05-07T18:13:46;102416.00;;;16.43;40.15
53514;BME280;39768;54.148;12.174;2023-05-07T18:17:47;102418.66;;;15.47;41.55
53514;BME280;39768;54.148;12.174;2023-05-07T18:21:49;102427.56;;;15.44;41.61
53514;BME280;39768;54.148;12.174;2023-05-07T18:25:51;102422.16;;;15.60;42.80
53514;BME280;39768;54.148;12.174;2023-05-07T18:29:52;102429.50;;;15.26;42.71
53514;BME280;39768;54.148;12.174;2023-05-07T18:33:54;102431.19;;;15.42;42.93
53514;BME280;39768;54.148;12.174;2023-05-07T18:37:56;102438.44;;;15.22;42.86
53514;BME280;39768;54.148;12.174;2023-05-07T18:41:58;102428.66;;;15.14;43.93
53514;BME280;39768;54.148;12.174;2023-05-07T18:46:00;102442.00;;;15.25;43.24
53514;BME280;39768;54.148;12.174;2023-05-07T18:50:02;102444.97;;;14.64;44.57
53514;BME280;39768;54.148;12.174;2023-05-07T18:54:05;102445.91;;;14.46;44.41
53514;BME280;39768;54.148;12.174;2023-05-07T18:58:35;102458.25;;;14.81;45.39
53514;BME280;39768;54.148;12.174;2023-05-07T19:02:47;102454.72;;;14.73;45.36
53514;BME280;39768;54.148;12.174;2023-05-07T19:06:48;102451.00;;;15.04;44.74
53514;BME280;39768;54.148;12.174;2023-05-07T19:10:50;102461.03;;;14.44;46.51
53514;BME280;39768;54.148;12.174;2023-05-07T19:14:51;102455.69;;;14.31;47.59
53514;BME280;39768;54.148;12.174;2023-05-07T19:18:54;102459.28;;;14.07;47.75
53514;BME280;39768;54.148;12.174;2023-05-07T19:22:55;102465.47;;;14.32;47.91
53514;BME280;39768;54.148;12.174;2023-05-07T19:26:57;102467.28;;;13.98;50.20
53514;BME280;39768;54.148;12.174;2023-05-07T19:30:59;102475.28;;;14.15;49.10
53514;BME280;39768;54.148;12.174;2023-05-07T19:35:00;102479.72;;;14.60;47.72
53514;BME280;39768;54.148;12.174;2023-05-07T19:39:02;102484.19;;;14.12;50.57
53514;BME280;39768;54.148;12.174;2023-05-07T19:43:04;102485.84;;;13.23;52.02
53514;BME280;39768;54.148;12.174;2023-05-07T19:47:05;102491.28;;;13.57;53.65
53514;BME280;39768;54.148;12.174;2023-05-07T19:51:07;102491.19;;;13.25;53.66
53514;BME280;39768;54.148;12.174;2023-05-07T19:55:09;102496.59;;;13.45;54.72
53514;BME280;39768;54.148;12.174;2023-05-07T19:59:11;102496.66;;;13.86;52.64
53514;BME280;39768;54.148;12.174;2023-05-07T20:03:12;102506.44;;;13.71;53.23
53514;BME280;39768;54.148;12.174;2023-05-07T20:07:18;102515.34;;;13.86;52.42
53514;BME280;39768;54.148;12.174;2023-05-07T20:11:20;102518.91;;;13.75;51.98
53514;BME280;39768;54.148;12.174;2023-05-07T20:15:22;102525.13;;;13.82;51.86
53514;BME280;39768;54.148;12.174;2023-05-07T20:19:23;102522.41;;;13.56;53.16
53514;BME280;39768;54.148;12.174;2023-05-07T20:23:25;102527.41;;;12.74;54.24
53514;BME280;39768;54.148;12.174;2023-05-07T20:27:27;102522.44;;;13.50;53.67
53514;BME280;39768;54.148;12.174;2023-05-07T20:31:28;102525.00;;;13.29;55.18
53514;BME280;39768;54.148;12.174;2023-05-07T20:35:32;102525.69;;;12.88;57.18
53514;BME280;39768;54.148;12.174;2023-05-07T20:39:34;102530.94;;;12.79;58.44
53514;BME280;39768;54.148;12.174;2023-05-07T20:43:35;102533.59;;;12.71;56.40
53514;BME280;39768;54.148;12.174;2023-05-07T20:47:38;102534.31;;;12.51;59.54
53514;BME280;39768;54.148;12.174;2023-05-07T20:51:39;102533.31;;;12.33;61.70
53514;BME280;39768;54.148;12.174;2023-05-07T20:55:41;102531.78;;;12.66;59.47
53514;BME280;39768;54.148;12.174;2023-05-07T20:59:42;102542.84;;;12.06;60.07
53514;BME280;39768;54.148;12.174;2023-05-07T21:03:44;102535.09;;;12.36;61.11
53514;BME280;39768;54.148;12.174;2023-05-07T21:07:45;102546.94;;;12.73;59.60